Time;durP1;ratioP1;P1;durP2;ratioP2;P2;SDS_P1;SDS_P2;PMS_P1;PMS_P2;Temp;Humidity;BMP_temperature;BMP_pressure;BME280_temperature;BME280_humidity;BME280_pressure;Samples;Min_cycle;Max_cycle;Signal;HPM_P1;HPM_P2
2023/09/26 00:00:36;;;;;;;4.53;4.13;;;;;;;10.54;100.00;96945.06;4974727;28;105433;-73
2023/09/26 00:03:03;;;;;;;3.83;3.53;;;;;;;10.46;100.00;96949.94;4974008;28;105631;-73
2023/09/26 00:05:30;;;;;;;3.57;3.30;;;;;;;10.43;100.00;96947.75;4974739;28;102037;-73
2023/09/26 00:08:00;;;;;;;3.80;3.50;;;;;;;10.53;100.00;96946.09;4977357;28;105792;-73
2023/09/26 00:10:27;;;;;;;4.17;3.80;;;;;;;10.55;100.00;96949.34;4974382;28;101901;-73
2023/09/26 00:12:54;;;;;;;4.77;4.37;;;;;;;10.49;100.00;96957.44;4974444;28;104918;-73
2023/09/26 00:15:21;;;;;;;6.07;4.57;;;;;;;10.55;100.00;96953.84;4973754;28;105778;-73
2023/09/26 00:17:51;;;;;;;6.03;5.03;;;;;;;10.61;100.00;96960.88;4974466;28;102031;-73
2023/09/26 00:20:18;;;;;;;5.50;5.10;;;;;;;10.58;100.00;96964.81;4974248;28;104892;-73
2023/09/26 00:22:45;;;;;;;5.93;5.33;;;;;;;10.66;100.00;96969.78;4973627;28;106341;-73
2023/09/26 00:25:12;;;;;;;5.10;4.70;;;;;;;10.70;100.00;96962.94;4973972;28;101981;-73
2023/09/26 00:27:39;;;;;;;5.57;4.63;;;;;;;10.76;100.00;96963.81;4974384;28;105710;-73
2023/09/26 00:30:08;;;;;;;4.50;4.10;;;;;;;10.73;100.00;96962.44;4977042;28;104115;-73
2023/09/26 00:32:36;;;;;;;4.60;4.20;;;;;;;10.77;100.00;96958.28;4974224;28;105404;-74
2023/09/26 00:35:08;;;;;;;4.70;3.80;;;;;;;10.70;100.00;96959.47;4973007;28;105230;-74
2023/09/26 00:37:36;;;;;;;4.30;4.00;;;;;;;10.73;100.00;96957.13;4974140;28;101848;-74
2023/09/26 00:40:03;;;;;;;4.20;3.90;;;;;;;10.69;100.00;96953.31;4974285;28;104518;-74
2023/09/26 00:42:30;;;;;;;3.70;3.40;;;;;;;10.66;100.00;96950.34;4973466;28;105563;-74
2023/09/26 00:44:57;;;;;;;4.70;3.93;;;;;;;10.53;100.00;96951.41;4973762;28;102066;-74
2023/09/26 00:47:25;;;;;;;4.00;3.70;;;;;;;10.55;100.00;96943.19;4973962;28;105574;-74
2023/09/26 00:49:52;;;;;;;3.67;3.37;;;;;;;10.52;100.00;96951.66;4973252;28;105425;-74
2023/09/26 00:52:20;;;;;;;4.10;3.80;;;;;;;10.50;100.00;96949.22;4977212;28;102035;-74
2023/09/26 00:54:47;;;;;;;5.33;3.60;;;;;;;10.32;100.00;96949.41;4973068;28;104621;-74
2023/09/26 00:57:14;;;;;;;4.27;3.53;;;;;;;10.33;100.00;96943.03;4973550;28;101992;-74
2023/09/26 00:59:41;;;;;;;3.93;3.57;;;;;;;10.23;100.00;96942.00;4974043;28;105499;-74
2023/09/26 01:02:10;;;;;;;3.90;3.50;;;;;;;10.03;100.00;96938.91;4973130;28;106049;-74
2023/09/26 01:04:38;;;;;;;3.93;3.60;;;;;;;9.77;100.00;96934.06;4973670;28;101863;-74
2023/09/26 01:07:05;;;;;;;3.30;3.10;;;;;;;9.84;100.00;96932.09;4973616;28;105173;-74
2023/09/26 01:09:33;;;;;;;3.20;3.00;;;;;;;9.92;100.00;96935.22;4972994;28;105078;-73
2023/09/26 01:12:00;;;;;;;4.50;4.00;;;;;;;9.84;100.00;96932.09;4973495;28;102095;-73
2023/09/26 01:14:27;;;;;;;6.00;4.13;;;;;;;9.88;100.00;96931.41;4976480;28;105363;-74
2023/09/26 01:16:55;;;;;;;4.10;3.80;;;;;;;9.88;100.00;96925.28;4973486;28;101836;-74
2023/09/26 01:19:22;;;;;;;4.23;3.93;;;;;;;9.89;100.00;96926.91;4973528;28;104820;-74
2023/09/26 01:21:49;;;;;;;5.30;4.87;;;;;;;9.74;100.00;96926.56;4972937;28;105771;-74
2023/09/26 01:24:18;;;;;;;5.23;4.80;;;;;;;9.73;100.00;96928.44;4973266;28;101823;-74
2023/09/26 01:26:45;;;;;;;6.10;5.60;;;;;;;9.89;100.00;96930.38;4973228;28;105320;-73
2023/09/26 01:29:12;;;;;;;5.73;5.23;;;;;;;9.93;100.00;96930.72;4972622;28;105589;-73
2023/09/26 01:31:40;;;;;;;5.83;5.33;;;;;;;10.01;100.00;96923.19;4973508;28;101919;-73
2023/09/26 01:34:07;;;;;;;5.90;5.40;;;;;;;10.01;100.00;96925.84;4972928;28;105503;-73
2023/09/26 01:36:34;;;;;;;5.93;5.33;;;;;;;10.03;100.00;96920.31;4975499;28;102295;-73
2023/09/26 01:39:01;;;;;;;5.57;5.17;;;;;;;9.83;100.00;96922.53;4972870;28;105409;-73
2023/09/26 01:41:31;;;;;;;5.80;5.30;;;;;;;9.83;100.00;96920.69;4972462;28;105287;-73
2023/09/26 01:43:58;;;;;;;7.00;6.40;;;;;;;9.91;100.00;96922.97;4972838;28;101967;-73
2023/09/26 01:46:25;;;;;;;6.13;5.57;;;;;;;9.81;100.00;96921.97;4973089;28;105161;-73
2023/09/26 01:48:52;;;;;;;6.90;6.30;;;;;;;9.74;100.00;96913.28;4972494;28;105119;-74
2023/09/26 01:51:19;;;;;;;8.27;5.90;;;;;;;9.81;100.00;96916.66;4972896;28;102012;-74
2023/09/26 01:53:46;;;;;;;6.23;5.73;;;;;;;9.87;100.00;96916.50;4972948;28;105280;-74
2023/09/26 01:56:13;;;;;;;6.37;5.13;;;;;;;9.89;100.00;96921.59;4975723;28;105931;-74
2023/09/26 01:58:42;;;;;;;6.10;5.50;;;;;;;9.77;100.00;96918.16;4972850;28;104946;-74
2023/09/26 02:01:10;;;;;;;6.53;5.83;;;;;;;9.81;100.00;96921.97;4972197;28;105592;-74
2023/09/26 02:03:37;;;;;;;6.57;5.97;;;;;;;9.79;100.00;96918.72;4972952;28;101858;-74
2023/09/26 02:06:04;;;;;;;6.20;5.70;;;;;;;9.68;100.00;96915.03;4972803;28;105540;-74
2023/09/26 02:08:31;;;;;;;6.33;5.70;;;;;;;9.66;100.00;96917.09;4990012;28;102746;-74
2023/09/26 02:10:58;;;;;;;5.50;5.10;;;;;;;9.66;100.00;96918.97;4972907;28;101847;-74
2023/09/26 02:13:25;;;;;;;5.50;5.10;;;;;;;9.63;100.00;96919.41;4972716;28;105151;-74
2023/09/26 02:15:54;;;;;;;6.03;5.53;;;;;;;9.59;100.00;96921.72;4971970;28;105413;-74
2023/09/26 02:18:21;;;;;;;6.97;6.27;;;;;;;9.68;100.00;96922.19;4976140;28;101950;-74
2023/09/26 02:20:48;;;;;;;6.87;6.27;;;;;;;9.76;100.00;96919.19;4972251;28;104540;-74
2023/09/26 02:23:15;;;;;;;7.20;6.37;;;;;;;9.77;100.00;96921.59;4972677;28;101851;-74
2023/09/26 02:25:50;;;;;;;6.43;5.93;;;;;;;9.73;100.00;96923.13;4972612;28;105093;-74
2023/09/26 02:28:18;;;;;;;6.33;5.80;;;;;;;9.77;100.00;96926.91;4972128;28;105545;-74
2023/09/26 02:30:45;;;;;;;6.30;5.80;;;;;;;9.71;100.00;96919.06;4972453;28;102060;-73
2023/09/26 02:33:14;;;;;;;5.97;5.57;;;;;;;9.77;100.00;96920.81;4972611;28;105583;-73
2023/09/26 02:35:41;;;;;;;6.17;5.67;;;;;;;9.83;100.00;96927.84;4970315;28;105017;-73
2023/09/26 02:38:08;;;;;;;5.63;5.23;;;;;;;9.81;100.00;96921.97;4971101;28;101952;-74
2023/09/26 02:40:35;;;;;;;5.10;4.77;;;;;;;9.82;100.00;96918.25;4973909;28;105695;-74
2023/09/26 02:43:02;;;;;;;5.53;5.13;;;;;;;9.67;100.00;96912.59;4971076;28;101979;-74
2023/09/26 02:45:30;;;;;;;5.20;4.80;;;;;;;9.56;100.00;96916.06;4970985;28;105433;-74
2023/09/26 02:47:57;;;;;;;4.93;4.50;;;;;;;9.71;100.00;96906.59;4970535;28;105509;-74
2023/09/26 02:50:25;;;;;;;4.77;4.47;;;;;;;9.66;100.00;96908.34;4973710;28;102456;-74
2023/09/26 02:52:52;;;;;;;4.60;4.30;;;;;;;9.68;100.00;96909.72;4975036;28;105362;-74
2023/09/26 02:55:20;;;;;;;4.50;4.20;;;;;;;9.70;100.00;96897.00;4974206;28;105654;-73
2023/09/26 02:57:47;;;;;;;4.90;4.50;;;;;;;9.72;100.00;96902.09;4974768;28;102097;-73
2023/09/26 03:00:16;;;;;;;5.03;4.70;;;;;;;9.72;100.00;96905.56;4974824;28;104685;-73
2023/09/26 03:02:44;;;;;;;4.73;4.33;;;;;;;9.65;100.00;96904.84;4977509;28;105706;-73
2023/09/26 03:05:11;;;;;;;4.63;4.33;;;;;;;9.64;100.00;96913.06;4974601;28;103945;-73
2023/09/26 03:07:40;;;;;;;4.87;4.57;;;;;;;9.63;100.00;96908.78;4973955;28;105332;-73
2023/09/26 03:10:08;;;;;;;4.53;4.23;;;;;;;9.61;100.00;96911.69;4992444;28;101854;-73
2023/09/26 03:12:35;;;;;;;4.60;4.27;;;;;;;9.65;100.00;96914.69;4992228;28;102817;-73
2023/09/26 03:15:03;;;;;;;4.47;4.17;;;;;;;9.60;100.00;96915.38;4973779;28;105925;-73
2023/09/26 03:17:30;;;;;;;4.67;4.33;;;;;;;9.57;100.00;96909.72;4974551;28;101907;-73
2023/09/26 03:19:57;;;;;;;4.60;4.30;;;;;;;9.59;100.00;96921.72;4974116;28;105325;-73
2023/09/26 03:22:24;;;;;;;4.80;4.50;;;;;;;9.65;100.00;96914.69;4973735;28;105025;-72
2023/09/26 03:24:55;;;;;;;4.50;4.20;;;;;;;9.54;100.00;96915.50;4977723;28;101867;-73
2023/09/26 03:27:22;;;;;;;5.80;5.30;;;;;;;9.49;100.00;96915.38;4973684;28;105019;-73
2023/09/26 03:29:50;;;;;;;5.53;5.13;;;;;;;9.43;100.00;96916.31;4974149;28;101926;-73
2023/09/26 03:32:17;;;;;;;5.67;5.17;;;;;;;9.47;100.00;96912.13;4974133;28;105376;-73
2023/09/26 03:36:23;;;;;;;5.00;4.47;;;;;;;9.45;100.00;96916.88;5030095;28;101662;-74
2023/09/26 03:38:50;;;;;;;4.80;4.40;;;;;;;9.51;100.00;96914.13;5024969;28;105616;-74
2023/09/26 03:41:17;;;;;;;4.60;4.30;;;;;;;9.52;100.00;96907.75;5025530;28;101941;-74
2023/09/26 03:43:44;;;;;;;5.00;4.60;;;;;;;9.47;100.00;96907.63;5025463;28;105459;-74
2023/09/26 03:46:11;;;;;;;5.30;4.90;;;;;;;9.41;100.00;96910.41;5024855;28;105600;-74
2023/09/26 03:48:38;;;;;;;5.17;4.77;;;;;;;9.30;100.00;96901.41;5025286;28;102038;-74
2023/09/26 03:51:09;;;;;;;4.87;4.47;;;;;;;9.33;100.00;96903.59;5025395;28;105579;-74
2023/09/26 03:53:38;;;;;;;5.20;4.80;;;;;;;9.41;100.00;96902.44;5026097;28;103112;-74
2023/09/26 03:56:05;;;;;;;5.70;5.30;;;;;;;9.39;100.00;96897.34;5028653;28;101958;-74
2023/09/26 03:58:32;;;;;;;5.70;5.20;;;;;;;9.40;100.00;96904.31;5024532;28;105865;-74
2023/09/26 04:01:08;;;;;;;7.50;6.80;;;;;;;9.36;100.00;96904.97;5025237;28;102357;-74
2023/09/26 04:03:35;;;;;;;7.90;7.10;;;;;;;9.34;100.00;96897.25;5025134;28;105289;-74
2023/09/26 04:06:02;;;;;;;7.63;6.93;;;;;;;9.34;100.00;96902.56;5024627;28;105624;-74
2023/09/26 04:08:29;;;;;;;7.03;6.43;;;;;;;9.35;100.00;96912.16;5025028;28;102014;-74
2023/09/26 04:10:58;;;;;;;8.37;7.40;;;;;;;9.36;100.00;96904.97;5024985;28;104205;-74
2023/09/26 04:13:25;;;;;;;7.27;6.67;;;;;;;9.39;100.00;96905.31;5024385;28;105311;-73
2023/09/26 04:15:52;;;;;;;7.53;6.93;;;;;;;9.48;100.00;96911.13;5041754;27;101977;-74
2023/09/26 04:18:19;;;;;;;7.87;7.27;;;;;;;9.57;100.00;96907.06;5027761;28;105984;-74
2023/09/26 04:20:46;;;;;;;9.63;8.73;;;;;;;9.59;100.00;96905.00;5024939;28;101976;-74
2023/09/26 04:23:13;;;;;;;13.43;9.60;;;;;;;9.58;100.00;96908.66;5024784;28;105811;-74
2023/09/26 04:25:40;;;;;;;9.30;8.40;;;;;;;9.62;100.00;96910.66;5024246;28;105818;-74
2023/09/26 04:28:08;;;;;;;9.40;8.50;;;;;;;9.67;100.00;96908.13;5024718;28;101944;-74
2023/09/26 04:30:39;;;;;;;13.00;11.70;;;;;;;9.72;100.00;96916.19;5024643;28;104859;-74
2023/09/26 04:33:07;;;;;;;11.13;10.03;;;;;;;9.79;100.00;96913.41;5022969;28;105673;-76
2023/09/26 04:35:34;;;;;;;11.07;9.97;;;;;;;9.81;100.00;96909.47;5024786;27;101760;-76
2023/09/26 04:38:01;;;;;;;10.13;9.20;;;;;;;9.81;100.00;96911.34;5023551;28;104977;-76
2023/09/26 04:40:28;;;;;;;11.00;9.90;;;;;;;9.84;100.00;96910.84;5027353;28;105612;-76
2023/09/26 04:42:55;;;;;;;9.73;8.83;;;;;;;9.92;100.00;96921.94;5025906;27;102910;-75
2023/09/26 04:45:23;;;;;;;10.90;9.90;;;;;;;9.96;100.00;96915.13;5023902;28;105824;-76
2023/09/26 04:47:50;;;;;;;10.17;9.27;;;;;;;9.95;100.00;96910.03;5010475;28;102001;-76
2023/09/26 04:50:17;;;;;;;11.80;10.60;;;;;;;9.99;100.00;96908.53;5011094;28;105467;-76
2023/09/26 04:52:44;;;;;;;10.90;9.90;;;;;;;9.92;100.00;96905.19;5009387;28;105398;-76
2023/09/26 04:55:11;;;;;;;10.47;9.47;;;;;;;9.81;100.00;96908.69;5010866;28;101985;-76
2023/09/26 04:57:38;;;;;;;9.97;9.17;;;;;;;9.81;100.00;96914.00;5012382;28;102615;-76
2023/09/26 05:00:08;;;;;;;10.13;9.23;;;;;;;9.90;100.00;96917.88;5010190;28;105571;-76
2023/09/26 05:02:36;;;;;;;10.00;9.20;;;;;;;9.90;100.00;96913.41;5014193;28;101994;-76
2023/09/26 05:05:03;;;;;;;9.83;9.03;;;;;;;9.84;100.00;96913.50;5010250;28;105281;-76
2023/09/26 05:07:31;;;;;;;25.73;11.37;;;;;;;9.73;100.00;96919.63;5010779;28;102011;-76
2023/09/26 05:09:58;;;;;;;11.17;10.13;;;;;;;9.72;100.00;96926.81;5009768;28;105335;-76
2023/09/26 05:12:25;;;;;;;11.60;10.70;;;;;;;9.70;100.00;96928.09;5009207;28;104034;-76
2023/09/26 05:14:52;;;;;;;30.50;12.57;;;;;;;9.66;100.00;96930.38;5009570;28;101926;-76
2023/09/26 05:17:21;;;;;;;11.83;10.83;;;;;;;9.70;100.00;96925.44;5009736;28;105101;-76
2023/09/26 05:19:49;;;;;;;11.67;10.67;;;;;;;9.66;100.00;96925.06;5009183;28;105728;-76
2023/09/26 05:22:16;;;;;;;12.47;11.27;;;;;;;9.80;100.00;96930.94;5009562;28;101911;-76
2023/09/26 05:24:43;;;;;;;13.67;12.27;;;;;;;9.56;100.00;96926.69;5012628;28;105527;-76
2023/09/26 05:27:10;;;;;;;20.07;11.97;;;;;;;9.41;100.00;96921.00;5009435;28;101925;-76
2023/09/26 05:29:36;;;;;;;15.03;12.33;;;;;;;9.50;100.00;96927.63;5009422;28;105081;-76
2023/09/26 05:32:05;;;;;;;12.43;11.40;;;;;;;9.56;100.00;96926.69;5009135;28;104440;-76
2023/09/26 05:34:35;;;;;;;11.87;10.87;;;;;;;9.64;100.00;96923.66;5008775;28;102372;-76
2023/09/26 05:37:03;;;;;;;11.80;10.80;;;;;;;9.68;100.00;96916.88;5009296;28;105063;-76
2023/09/26 05:39:30;;;;;;;11.77;10.87;;;;;;;9.77;100.00;96913.63;5008789;28;104846;-76
2023/09/26 05:41:57;;;;;;;11.77;10.77;;;;;;;9.84;100.00;96918.81;5009291;28;101860;-76
2023/09/26 05:44:24;;;;;;;12.93;11.73;;;;;;;9.91;100.00;96907.03;5009080;28;104388;-76
2023/09/26 05:46:51;;;;;;;11.37;10.37;;;;;;;10.05;100.00;96907.63;5011744;28;101997;-76
2023/09/26 05:49:18;;;;;;;11.63;10.63;;;;;;;10.10;100.00;96905.91;5009170;28;105429;-76
2023/09/26 05:51:45;;;;;;;10.13;9.30;;;;;;;10.21;100.00;96902.41;5008849;28;105589;-76
2023/09/26 05:54:13;;;;;;;9.80;9.00;;;;;;;10.33;100.00;96895.19;5010193;28;101906;-76
2023/09/26 05:56:40;;;;;;;10.00;9.20;;;;;;;10.42;100.00;96901.72;5009870;28;105375;-76
2023/09/26 05:59:07;;;;;;;9.77;8.97;;;;;;;10.53;100.00;96902.75;5008122;28;105229;-76
2023/09/26 06:01:34;;;;;;;9.53;8.83;;;;;;;10.61;100.00;96897.84;5009816;28;101861;-76
2023/09/26 06:04:01;;;;;;;10.07;9.27;;;;;;;10.67;100.00;96891.59;5009892;28;105732;-76
2023/09/26 06:06:27;;;;;;;10.00;9.20;;;;;;;10.74;100.00;96889.56;5012553;28;103910;-76
2023/09/26 06:08:54;;;;;;;9.83;8.97;;;;;;;10.79;100.00;96888.88;5009904;28;105679;-76
2023/09/26 06:11:23;;;;;;;8.90;8.10;;;;;;;10.95;100.00;96896.09;5009531;28;105060;-76
2023/09/26 06:13:52;;;;;;;8.50;7.73;;;;;;;11.05;100.00;96897.06;5009531;28;101996;-76
2023/09/26 06:16:19;;;;;;;8.83;8.03;;;;;;;11.19;100.00;96903.69;5009650;28;105649;-76
2023/09/26 06:18:47;;;;;;;9.90;9.00;;;;;;;11.36;100.00;96898.34;5010545;28;102876;-76
2023/09/26 06:21:15;;;;;;;9.40;8.50;;;;;;;11.50;100.00;96904.97;5009667;28;101944;-76
2023/09/26 06:23:42;;;;;;;8.80;8.10;;;;;;;11.59;100.00;96900.84;5009586;28;105218;-76
2023/09/26 06:26:09;;;;;;;8.87;8.17;;;;;;;11.66;100.00;96904.97;5009130;28;105645;-76
2023/09/26 06:28:37;;;;;;;8.67;7.97;;;;;;;11.76;100.00;96905.13;5012816;28;101913;-76
2023/09/26 06:31:05;;;;;;;8.47;7.77;;;;;;;11.86;100.00;96899.94;5008793;28;104196;-76
2023/09/26 06:33:32;;;;;;;8.83;8.03;;;;;;;11.93;100.00;96899.78;5009378;28;101948;-76
2023/09/26 06:35:59;;;;;;;8.30;7.70;;;;;;;12.02;100.00;96899.09;5009074;28;105811;-76
2023/09/26 06:38:28;;;;;;;9.07;8.27;;;;;;;12.12;100.00;96893.91;5008644;28;105498;-76
2023/09/26 06:41:01;;;;;;;8.27;7.67;;;;;;;12.26;100.00;96897.78;5009203;28;101886;-76
2023/09/26 06:43:28;;;;;;;7.63;7.03;;;;;;;12.28;100.00;96890.38;5009056;28;105295;-76
2023/09/26 06:45:56;;;;;;;7.67;6.97;;;;;;;12.38;100.00;96889.69;5010008;28;102801;-76
2023/09/26 06:48:23;;;;;;;7.30;6.70;;;;;;;12.50;100.00;96895.69;5009138;28;102083;-76
2023/09/26 06:50:50;;;;;;;8.33;7.63;;;;;;;12.56;100.00;96900.00;5011955;28;105376;-76
2023/09/26 06:53:17;;;;;;;8.00;7.30;;;;;;;12.66;100.00;96892.94;5009091;28;101983;-76
2023/09/26 06:55:44;;;;;;;8.83;7.93;;;;;;;12.76;100.00;96895.69;5009055;28;105271;-76
2023/09/26 06:58:11;;;;;;;7.63;7.03;;;;;;;12.90;100.00;96901.44;5009871;28;102841;-76
2023/09/26 07:00:39;;;;;;;9.13;8.30;;;;;;;13.01;100.00;96890.63;5008924;28;101933;-76
2023/09/26 07:03:07;;;;;;;9.53;8.73;;;;;;;13.11;100.00;96887.25;5009079;28;104458;-76
2023/09/26 07:05:34;;;;;;;8.37;7.63;;;;;;;13.22;100.00;96889.75;5008358;28;105760;-76
2023/09/26 07:08:01;;;;;;;8.10;7.50;;;;;;;13.22;100.00;96889.75;5009081;28;102005;-76
2023/09/26 07:10:28;;;;;;;8.17;7.53;;;;;;;13.39;100.00;96885.09;5008432;28;105576;-76
2023/09/26 07:12:55;;;;;;;8.03;7.43;;;;;;;13.65;100.00;96891.41;5028378;28;106206;-76
2023/09/26 07:15:25;;;;;;;7.73;6.70;;;;;;;13.68;100.00;96888.25;5008834;28;103251;-76
2023/09/26 07:17:52;;;;;;;7.30;6.43;;;;;;;13.81;100.00;96893.13;5008086;28;105386;-76
2023/09/26 07:20:21;;;;;;;6.97;6.37;;;;;;;13.96;100.00;96895.91;5010214;28;101844;-76
2023/09/26 07:22:48;;;;;;;7.10;6.40;;;;;;;14.05;100.00;96889.78;5008622;28;105464;-76
2023/09/26 07:25:15;;;;;;;6.57;6.07;;;;;;;14.11;100.00;96896.78;5008027;28;103972;-76
2023/09/26 07:27:42;;;;;;;6.53;6.03;;;;;;;14.19;100.00;96890.13;5008659;28;101927;-76
2023/09/26 07:30:10;;;;;;;6.30;5.80;;;;;;;14.31;100.00;96890.75;5008736;28;104877;-76
2023/09/26 07:32:36;;;;;;;5.80;5.30;;;;;;;14.48;100.00;96891.34;5008034;28;105725;-76
2023/09/26 07:35:04;;;;;;;5.60;5.10;;;;;;;14.54;100.00;96884.94;5011337;28;102257;-76
2023/09/26 07:37:33;;;;;;;5.70;5.20;;;;;;;14.72;100.00;96884.47;5009240;28;102835;-76
2023/09/26 07:40:03;;;;;;;5.97;5.27;;;;;;;14.81;100.00;96882.88;5008463;28;101916;-76
2023/09/26 07:42:29;;;;;;;5.33;4.93;;;;;;;14.79;100.00;96879.66;5025201;28;104986;-76
2023/09/26 07:44:58;;;;;;;5.10;4.70;;;;;;;14.90;100.00;96890.16;5009330;28;102855;-76
2023/09/26 07:47:25;;;;;;;7.77;4.47;;;;;;;15.07;100.00;96881.84;5009650;28;101865;-76
2023/09/26 07:49:51;;;;;;;5.57;4.93;;;;;;;15.26;100.00;96889.09;5008461;28;105161;-76
2023/09/26 07:52:19;;;;;;;6.13;4.50;;;;;;;15.31;100.00;96889.09;5024449;28;105605;-76
2023/09/26 07:54:48;;;;;;;6.47;4.80;;;;;;;15.59;100.00;96887.81;5011670;28;101980;-76
2023/09/26 07:57:14;;;;;;;5.47;4.97;;;;;;;15.63;100.00;96886.97;5007506;28;105644;-76
2023/09/26 07:59:41;;;;;;;5.60;5.10;;;;;;;15.59;100.00;96885.13;5008283;28;101992;-76
2023/09/26 08:02:08;;;;;;;5.07;4.57;;;;;;;15.88;100.00;96894.19;5025030;28;105657;-76
2023/09/26 08:04:35;;;;;;;4.97;4.20;;;;;;;16.13;100.00;96892.25;5007563;28;105434;-76
2023/09/26 08:07:02;;;;;;;5.07;4.67;;;;;;;16.15;100.00;96894.66;5008217;28;102309;-76
2023/09/26 08:09:29;;;;;;;6.53;4.13;;;;;;;16.36;100.00;96882.78;5008067;28;105383;-76
2023/09/26 08:11:58;;;;;;;5.37;4.97;;;;;;;16.18;100.00;96884.19;5007463;28;105988;-76
2023/09/26 08:14:24;;;;;;;5.17;4.60;;;;;;;15.98;100.00;96886.13;5007980;28;101921;-76
2023/09/26 08:16:51;;;;;;;5.07;4.67;;;;;;;16.07;100.00;96881.81;5012245;28;102990;-76
2023/09/26 08:19:18;;;;;;;5.70;4.57;;;;;;;16.34;100.00;96882.25;5003430;28;102010;-77
2023/09/26 08:21:45;;;;;;;8.03;5.57;;;;;;;16.50;100.00;96886.50;4988822;28;105739;-77
2023/09/26 08:24:12;;;;;;;7.07;6.47;;;;;;;16.36;100.00;96896.22;4990393;28;105891;-76
2023/09/26 08:26:39;;;;;;;11.20;7.23;;;;;;;16.53;100.00;96886.78;4991210;28;102084;-77
2023/09/26 08:29:08;;;;;;;9.07;7.43;;;;;;;16.23;100.00;96883.34;4990989;28;105197;-78
2023/09/26 08:31:35;;;;;;;7.50;6.80;;;;;;;16.80;100.00;96892.56;4990520;28;105750;-78
2023/09/26 08:34:02;;;;;;;10.57;6.77;;;;;;;16.94;100.00;96890.84;5007207;28;102023;-78
2023/09/26 08:36:30;;;;;;;8.30;7.50;;;;;;;17.26;100.00;96883.09;4992442;28;102509;-79
2023/09/26 08:38:57;;;;;;;7.37;6.60;;;;;;;17.41;100.00;96892.97;4993702;28;105175;-79
2023/09/26 08:41:26;;;;;;;8.90;7.60;;;;;;;17.37;100.00;96881.13;4992260;28;102680;-78
2023/09/26 08:43:53;;;;;;;8.50;7.60;;;;;;;17.05;100.00;96884.31;4991678;28;101891;-80
2023/09/26 08:46:21;;;;;;;9.30;8.20;;;;;;;17.06;100.00;96885.13;4992300;28;101842;-78
2023/09/26 08:48:49;;;;;;;9.17;8.27;;;;;;;17.44;100.00;96876.28;5007338;28;105304;-78
2023/09/26 08:51:16;;;;;;;8.07;7.23;;;;;;;17.31;100.00;96883.06;4990256;28;105675;-80
2023/09/26 08:53:43;;;;;;;8.77;7.97;;;;;;;17.56;100.00;96879.41;4990655;28;102023;-79
2023/09/26 08:56:10;;;;;;;11.23;8.90;;;;;;;16.81;100.00;96871.84;4991861;28;103000;-79
2023/09/26 08:58:37;;;;;;;10.20;9.23;;;;;;;16.95;100.00;96884.38;4990133;28;105397;-79
2023/09/26 09:01:04;;;;;;;9.47;8.33;;;;;;;17.42;100.00;96881.13;4995438;28;101869;-78
2023/09/26 09:03:33;;;;;;;9.90;9.00;;;;;;;17.73;100.00;96874.41;5006697;28;105469;-78
2023/09/26 09:05:59;;;;;;;10.27;9.37;;;;;;;17.33;100.00;96872.03;4990593;28;101999;-78
2023/09/26 09:08:26;;;;;;;9.57;8.67;;;;;;;17.62;100.00;96870.22;5007080;28;105237;-78
2023/09/26 09:10:55;;;;;;;9.90;9.00;;;;;;;17.80;100.00;96864.91;4989927;28;105665;-78
2023/09/26 09:13:32;;;;;;;10.03;8.70;;;;;;;17.68;100.00;96869.88;4990494;28;102130;-78
2023/09/26 09:16:09;;;;;;;9.77;8.13;;;;;;;18.13;100.00;96868.59;4991943;28;102822;-78
2023/09/26 09:18:39;;;;;;;8.17;7.37;;;;;;;18.71;100.00;96865.50;4989851;28;105148;-78
2023/09/26 09:21:27;;;;;;;7.27;6.57;;;;;;;19.02;100.00;96853.19;4990272;28;101973;-78
2023/09/26 09:23:55;;;;;;;6.90;5.80;;;;;;;19.11;100.00;96848.75;5003708;28;105143;-78
2023/09/26 09:26:23;;;;;;;5.77;5.20;;;;;;;19.30;100.00;96854.94;5006939;28;102420;-78
2023/09/26 09:28:51;;;;;;;6.60;6.00;;;;;;;19.31;100.00;96853.88;4990346;28;105235;-77
2023/09/26 09:31:18;;;;;;;6.30;5.80;;;;;;;19.26;100.00;96850.44;4991131;28;103176;-78
2023/09/26 09:33:48;;;;;;;6.00;5.40;;;;;;;19.51;100.00;96858.91;5006595;28;101993;-78
2023/09/26 09:36:15;;;;;;;5.63;5.13;;;;;;;19.67;100.00;96854.88;4989598;28;105537;-78
2023/09/26 09:38:42;;;;;;;6.13;5.53;;;;;;;19.52;100.00;96844.31;4989279;28;105845;-78
2023/09/26 09:41:09;;;;;;;6.07;5.47;;;;;;;19.43;100.00;96850.69;5006836;28;102792;-78
2023/09/26 09:43:36;;;;;;;5.73;5.23;;;;;;;19.71;100.00;96842.38;4990001;28;104951;-78
2023/09/26 09:46:08;;;;;;;5.73;5.20;;;;;;;19.95;100.00;96842.22;4992797;28;105922;-78
2023/09/26 09:48:43;;;;;;;4.40;4.00;;;;;;;20.20;100.00;96839.06;5006388;28;105413;-78
2023/09/26 09:51:13;;;;;;;3.60;3.20;;;;;;;20.32;100.00;96829.38;4988974;28;105830;-78
2023/09/26 09:53:45;;;;;;;3.93;3.53;;;;;;;20.42;100.00;96833.75;4989766;28;101889;-79
2023/09/26 09:56:18;;;;;;;3.80;3.50;;;;;;;20.58;100.00;96835.03;4989721;28;105754;-79
2023/09/26 09:58:50;;;;;;;4.70;4.30;;;;;;;20.77;100.00;96830.31;4989153;28;105500;-78
2023/09/26 10:01:19;;;;;;;5.37;4.87;;;;;;;20.91;100.00;96831.09;4989878;28;101868;-78
2023/09/26 10:03:48;;;;;;;5.70;4.83;;;;;;;21.28;100.00;96826.16;4989469;28;105314;-79
2023/09/26 10:06:16;;;;;;;5.20;4.80;;;;;;;21.34;100.00;96833.06;4992300;28;105468;-81
2023/09/26 10:08:44;;;;;;;5.00;4.60;;;;;;;21.39;100.00;96829.41;4989544;28;103790;-82
2023/09/26 10:11:12;;;;;;;5.83;5.10;;;;;;;21.30;100.00;96831.28;4988729;28;104025;-80
2023/09/26 10:13:41;;;;;;;4.80;4.40;;;;;;;21.33;100.00;96826.06;4989578;28;102327;-80
2023/09/26 10:16:11;;;;;;;5.43;4.93;;;;;;;20.97;100.00;96824.47;4989489;28;105404;-81
2023/09/26 10:18:40;;;;;;;5.20;4.80;;;;;;;20.66;100.00;96824.31;4988709;28;105515;-81
2023/09/26 10:21:22;;;;;;;5.83;5.13;;;;;;;20.38;100.00;96830.84;4989310;28;102201;-81
2023/09/26 10:24:22;;;;;;;5.40;4.90;;;;;;;20.57;100.00;96830.75;4989429;28;105769;-83
2023/09/26 10:26:51;;;;;;;4.67;4.27;;;;;;;21.05;100.00;96823.75;5005339;28;105734;-83
2023/09/26 10:29:26;;;;;;;5.50;4.97;;;;;;;21.56;100.00;96832.22;4992678;28;101908;-83
2023/09/26 10:31:55;;;;;;;5.10;3.83;;;;;;;21.56;100.00;96827.63;4988514;28;105352;-83
2023/09/26 10:34:28;;;;;;;5.00;3.97;;;;;;;21.34;100.00;96830.34;4988541;28;101917;-83
2023/09/26 10:36:57;;;;;;;4.90;4.50;;;;;;;21.01;100.00;96823.56;4989199;28;104350;-83
2023/09/26 10:39:34;;;;;;;5.10;4.50;;;;;;;20.48;100.00;96829.88;5005194;28;105913;-83
2023/09/26 10:42:18;;;;;;;5.23;4.70;;;;;;;21.00;100.00;96832.78;4989090;28;101992;-83
2023/09/26 10:44:45;;;;;;;4.20;3.80;;;;;;;21.02;100.00;96822.47;5003246;28;105467;-83
2023/09/26 10:47:13;;;;;;;4.30;3.90;;;;;;;21.35;100.00;96825.72;4988331;28;105254;-83
2023/09/26 10:49:40;;;;;;;4.00;3.40;;;;;;;21.57;100.00;96825.72;4988840;28;101949;-83
2023/09/26 10:52:09;;;;;;;5.33;4.00;;;;;;;21.27;100.00;96821.88;4993102;28;102983;-83
2023/09/26 10:54:37;;;;;;;3.93;3.53;;;;;;;21.21;100.00;96814.94;4989014;28;102272;-83
2023/09/26 10:57:04;;;;;;;4.17;3.83;;;;;;;21.61;100.00;96810.44;5005328;28;105465;-83
2023/09/26 10:59:32;;;;;;;4.13;3.83;;;;;;;21.67;100.00;96812.72;4989550;28;102848;-83
2023/09/26 11:02:00;;;;;;;4.33;3.77;;;;;;;21.65;100.00;96808.72;4988696;28;102001;-83
2023/09/26 11:04:28;;;;;;;3.57;3.27;;;;;;;21.51;100.00;96805.28;4989937;28;102722;-84
2023/09/26 11:06:56;;;;;;;5.13;3.47;;;;;;;21.50;100.00;96809.13;4988047;28;104038;-84
2023/09/26 11:09:25;;;;;;;8.77;3.10;;;;;;;22.20;100.00;96801.84;4988879;28;102756;-84
2023/09/26 11:11:54;;;;;;;4.10;3.30;;;;;;;21.96;100.00;96804.16;4988570;28;105122;-84
2023/09/26 11:14:21;;;;;;;4.67;3.17;;;;;;;21.78;100.00;96799.75;4991510;28;105666;-84
2023/09/26 11:16:48;;;;;;;6.63;3.03;;;;;;;21.94;100.00;96790.09;4990097;28;102680;-84
2023/09/26 11:19:15;;;;;;;4.33;3.87;;;;;;;21.35;100.00;96793.25;5004631;28;105061;-84
2023/09/26 11:21:42;;;;;;;4.10;3.70;;;;;;;21.17;100.00;96791.53;5005022;28;101947;-84
2023/09/26 11:24:19;;;;;;;3.53;3.23;;;;;;;21.59;100.00;96788.31;4988441;28;105941;-84